<?xml version="1.0" encoding="UTF-8" standalone="no" ?>
<gpx xmlns="http://www.topografix.com/GPX/1/1" xmlns:xsi="http://www.w3.org/2001/XMLSchema-instance" xsi:schemaLocation="http://www.topografix.com/GPX/1/1 http://www.topografix.com/GPX/1/1/gpx.xsd" version="1.1" creator="VisuGPX - https://www.visugpx.com">
  <metadata>
    <name>Belle-isle-en-terre - 17.56 km - RANDO MUCO 2023</name>
  </metadata>
  <wpt lat="48.52252" lon="-3.39466">
    <ele>111.8</ele>
  </wpt>
  <wpt lat="48.51672" lon="-3.40802">
    <ele>136.4</ele>
  </wpt>
  <wpt lat="48.52995" lon="-3.41656">
    <ele>174.4</ele>
  </wpt>
  <trk>
    <name><![CDATA[Pédestre 18km 2023-10532235]]></name>
    <extensions>
      <line xmlns="http://www.topografix.com/GPX/gpx_style/0/2">
        <color>0000FF</color>
        <width>4</width>
      </line>
    </extensions>
    <trkseg>
      <trkpt lat="48.54651" lon="-3.39649">
        <ele>90</ele>
        <time>2023-04-13T07:22:07Z</time>
      </trkpt>
      <trkpt lat="48.54624" lon="-3.39558">
        <ele>91</ele>
        <time>2023-04-13T07:23:35Z</time>
      </trkpt>
      <trkpt lat="48.54554" lon="-3.39555">
        <ele>92</ele>
        <time>2023-04-13T07:25:09Z</time>
      </trkpt>
      <trkpt lat="48.54515" lon="-3.39576">
        <ele>93</ele>
        <time>2023-04-13T07:26:04Z</time>
      </trkpt>
      <trkpt lat="48.54472" lon="-3.39602">
        <ele>94</ele>
        <time>2023-04-13T07:27:06Z</time>
      </trkpt>
      <trkpt lat="48.54418" lon="-3.39607">
        <ele>94</ele>
        <time>2023-04-13T07:28:18Z</time>
      </trkpt>
      <trkpt lat="48.54376" lon="-3.39573">
        <ele>95</ele>
        <time>2023-04-13T07:29:21Z</time>
      </trkpt>
      <trkpt lat="48.54281" lon="-3.39576">
        <ele>98</ele>
        <time>2023-04-13T07:31:28Z</time>
      </trkpt>
      <trkpt lat="48.54278" lon="-3.39667">
        <ele>97</ele>
        <time>2023-04-13T07:32:49Z</time>
      </trkpt>
      <trkpt lat="48.54195" lon="-3.3966">
        <ele>101</ele>
        <time>2023-04-13T07:34:40Z</time>
      </trkpt>
      <trkpt lat="48.54152" lon="-3.39675">
        <ele>101</ele>
        <time>2023-04-13T07:35:39Z</time>
      </trkpt>
      <trkpt lat="48.54102" lon="-3.3967">
        <ele>103</ele>
        <time>2023-04-13T07:36:45Z</time>
      </trkpt>
      <trkpt lat="48.54048" lon="-3.39683">
        <ele>104</ele>
        <time>2023-04-13T07:37:58Z</time>
      </trkpt>
      <trkpt lat="48.53976" lon="-3.39691">
        <ele>104</ele>
        <time>2023-04-13T07:39:35Z</time>
      </trkpt>
      <trkpt lat="48.5392" lon="-3.39639">
        <ele>107</ele>
        <time>2023-04-13T07:41:02Z</time>
      </trkpt>
      <trkpt lat="48.53848" lon="-3.39513">
        <ele>105</ele>
        <time>2023-04-13T07:43:29Z</time>
      </trkpt>
      <trkpt lat="48.53843" lon="-3.39419">
        <ele>108</ele>
        <time>2023-04-13T07:44:53Z</time>
      </trkpt>
      <trkpt lat="48.53796" lon="-3.39245">
        <ele>122</ele>
        <time>2023-04-13T07:47:39Z</time>
      </trkpt>
      <trkpt lat="48.53735" lon="-3.39211">
        <ele>119</ele>
        <time>2023-04-13T07:49:06Z</time>
      </trkpt>
      <trkpt lat="48.53692" lon="-3.39179">
        <ele>123</ele>
        <time>2023-04-13T07:50:10Z</time>
      </trkpt>
      <trkpt lat="48.53647" lon="-3.39192">
        <ele>121</ele>
        <time>2023-04-13T07:51:11Z</time>
      </trkpt>
      <trkpt lat="48.53591" lon="-3.39169">
        <ele>127</ele>
        <time>2023-04-13T07:52:28Z</time>
      </trkpt>
      <trkpt lat="48.53568" lon="-3.39185">
        <ele>124</ele>
        <time>2023-04-13T07:53:02Z</time>
      </trkpt>
      <trkpt lat="48.5352" lon="-3.39148">
        <ele>131</ele>
        <time>2023-04-13T07:54:14Z</time>
      </trkpt>
      <trkpt lat="48.53482" lon="-3.39166">
        <ele>130</ele>
        <time>2023-04-13T07:55:07Z</time>
      </trkpt>
      <trkpt lat="48.53419" lon="-3.39182">
        <ele>124</ele>
        <time>2023-04-13T07:56:32Z</time>
      </trkpt>
      <trkpt lat="48.53363" lon="-3.392">
        <ele>117</ele>
        <time>2023-04-13T07:57:49Z</time>
      </trkpt>
      <trkpt lat="48.53316" lon="-3.39294">
        <ele>105</ele>
        <time>2023-04-13T07:59:33Z</time>
      </trkpt>
      <trkpt lat="48.53223" lon="-3.39339">
        <ele>108</ele>
        <time>2023-04-13T08:01:43Z</time>
      </trkpt>
      <trkpt lat="48.53153" lon="-3.39375">
        <ele>110</ele>
        <time>2023-04-13T08:03:22Z</time>
      </trkpt>
      <trkpt lat="48.53072" lon="-3.39399">
        <ele>112</ele>
        <time>2023-04-13T08:05:12Z</time>
      </trkpt>
      <trkpt lat="48.53009" lon="-3.39399">
        <ele>112</ele>
        <time>2023-04-13T08:06:36Z</time>
      </trkpt>
      <trkpt lat="48.52957" lon="-3.39406">
        <ele>108</ele>
        <time>2023-04-13T08:07:46Z</time>
      </trkpt>
      <trkpt lat="48.5293" lon="-3.39328">
        <ele>119</ele>
        <time>2023-04-13T08:09:03Z</time>
      </trkpt>
      <trkpt lat="48.52875" lon="-3.39294">
        <ele>115</ele>
        <time>2023-04-13T08:10:23Z</time>
      </trkpt>
      <trkpt lat="48.52806" lon="-3.39305">
        <ele>108</ele>
        <time>2023-04-13T08:11:55Z</time>
      </trkpt>
      <trkpt lat="48.52722" lon="-3.39302">
        <ele>108</ele>
        <time>2023-04-13T08:13:47Z</time>
      </trkpt>
      <trkpt lat="48.52637" lon="-3.39297">
        <ele>114</ele>
        <time>2023-04-13T08:15:41Z</time>
      </trkpt>
      <trkpt lat="48.5261" lon="-3.39349">
        <ele>112</ele>
        <time>2023-04-13T08:16:39Z</time>
      </trkpt>
      <trkpt lat="48.52542" lon="-3.39464">
        <ele>113</ele>
        <time>2023-04-13T08:18:56Z</time>
      </trkpt>
      <trkpt lat="48.52486" lon="-3.3955">
        <ele>111</ele>
        <time>2023-04-13T08:20:42Z</time>
      </trkpt>
      <trkpt lat="48.52434" lon="-3.39592">
        <ele>109</ele>
        <time>2023-04-13T08:22:01Z</time>
      </trkpt>
      <trkpt lat="48.52393" lon="-3.39573">
        <ele>110</ele>
        <time>2023-04-13T08:22:58Z</time>
      </trkpt>
      <trkpt lat="48.52364" lon="-3.39519">
        <ele>111</ele>
        <time>2023-04-13T08:24:00Z</time>
      </trkpt>
      <trkpt lat="48.52334" lon="-3.39461">
        <ele>111</ele>
        <time>2023-04-13T08:25:05Z</time>
      </trkpt>
      <trkpt lat="48.52294" lon="-3.39438">
        <ele>113</ele>
        <time>2023-04-13T08:26:02Z</time>
      </trkpt>
      <trkpt lat="48.52247" lon="-3.39466">
        <ele>116</ele>
        <time>2023-04-13T08:27:09Z</time>
      </trkpt>
      <trkpt lat="48.52164" lon="-3.39329">
        <ele>130</ele>
        <time>2023-04-13T08:29:53Z</time>
      </trkpt>
      <trkpt lat="48.52138" lon="-3.39336">
        <ele>137</ele>
        <time>2023-04-13T08:30:29Z</time>
      </trkpt>
      <trkpt lat="48.52043" lon="-3.39248">
        <ele>157</ele>
        <time>2023-04-13T08:32:57Z</time>
      </trkpt>
      <trkpt lat="48.52004" lon="-3.39247">
        <ele>167</ele>
        <time>2023-04-13T08:33:49Z</time>
      </trkpt>
      <trkpt lat="48.51965" lon="-3.39241">
        <ele>172</ele>
        <time>2023-04-13T08:34:42Z</time>
      </trkpt>
      <trkpt lat="48.51908" lon="-3.39203">
        <ele>181</ele>
        <time>2023-04-13T08:36:05Z</time>
      </trkpt>
      <trkpt lat="48.51825" lon="-3.39179">
        <ele>185</ele>
        <time>2023-04-13T08:37:58Z</time>
      </trkpt>
      <trkpt lat="48.51766" lon="-3.392">
        <ele>183</ele>
        <time>2023-04-13T08:39:18Z</time>
      </trkpt>
      <trkpt lat="48.5174" lon="-3.3922">
        <ele>183</ele>
        <time>2023-04-13T08:39:57Z</time>
      </trkpt>
      <trkpt lat="48.51734" lon="-3.39258">
        <ele>182</ele>
        <time>2023-04-13T08:40:32Z</time>
      </trkpt>
      <trkpt lat="48.51698" lon="-3.39302">
        <ele>181</ele>
        <time>2023-04-13T08:41:34Z</time>
      </trkpt>
      <trkpt lat="48.51644" lon="-3.39343">
        <ele>180</ele>
        <time>2023-04-13T08:42:54Z</time>
      </trkpt>
      <trkpt lat="48.51631" lon="-3.39412">
        <ele>177</ele>
        <time>2023-04-13T08:43:58Z</time>
      </trkpt>
      <trkpt lat="48.51641" lon="-3.39568">
        <ele>171</ele>
        <time>2023-04-13T08:46:16Z</time>
      </trkpt>
      <trkpt lat="48.51665" lon="-3.39707">
        <ele>165</ele>
        <time>2023-04-13T08:48:23Z</time>
      </trkpt>
      <trkpt lat="48.5162" lon="-3.39722">
        <ele>166</ele>
        <time>2023-04-13T08:49:25Z</time>
      </trkpt>
      <trkpt lat="48.51611" lon="-3.39821">
        <ele>163</ele>
        <time>2023-04-13T08:50:53Z</time>
      </trkpt>
      <trkpt lat="48.51597" lon="-3.39871">
        <ele>164</ele>
        <time>2023-04-13T08:51:41Z</time>
      </trkpt>
      <trkpt lat="48.51581" lon="-3.39921">
        <ele>165</ele>
        <time>2023-04-13T08:52:30Z</time>
      </trkpt>
      <trkpt lat="48.51606" lon="-3.39947">
        <ele>165</ele>
        <time>2023-04-13T08:53:11Z</time>
      </trkpt>
      <trkpt lat="48.51646" lon="-3.39936">
        <ele>162</ele>
        <time>2023-04-13T08:54:05Z</time>
      </trkpt>
      <trkpt lat="48.51798" lon="-3.40122">
        <ele>147</ele>
        <time>2023-04-13T08:58:26Z</time>
      </trkpt>
      <trkpt lat="48.51809" lon="-3.40166">
        <ele>144</ele>
        <time>2023-04-13T08:59:08Z</time>
      </trkpt>
      <trkpt lat="48.51771" lon="-3.40262">
        <ele>147</ele>
        <time>2023-04-13T09:00:47Z</time>
      </trkpt>
      <trkpt lat="48.51761" lon="-3.40332">
        <ele>145</ele>
        <time>2023-04-13T09:01:50Z</time>
      </trkpt>
      <trkpt lat="48.51741" lon="-3.40379">
        <ele>149</ele>
        <time>2023-04-13T09:02:39Z</time>
      </trkpt>
      <trkpt lat="48.51739" lon="-3.40471">
        <ele>146</ele>
        <time>2023-04-13T09:04:01Z</time>
      </trkpt>
      <trkpt lat="48.51734" lon="-3.40546">
        <ele>143</ele>
        <time>2023-04-13T09:05:07Z</time>
      </trkpt>
      <trkpt lat="48.5172" lon="-3.40615">
        <ele>141</ele>
        <time>2023-04-13T09:06:11Z</time>
      </trkpt>
      <trkpt lat="48.51717" lon="-3.40702">
        <ele>136</ele>
        <time>2023-04-13T09:07:28Z</time>
      </trkpt>
      <trkpt lat="48.51714" lon="-3.40733">
        <ele>135</ele>
        <time>2023-04-13T09:07:56Z</time>
      </trkpt>
      <trkpt lat="48.51695" lon="-3.40798">
        <ele>135</ele>
        <time>2023-04-13T09:08:58Z</time>
      </trkpt>
      <trkpt lat="48.51669" lon="-3.408">
        <ele>139</ele>
        <time>2023-04-13T09:09:33Z</time>
      </trkpt>
      <trkpt lat="48.51642" lon="-3.40687">
        <ele>149</ele>
        <time>2023-04-13T09:11:19Z</time>
      </trkpt>
      <trkpt lat="48.51608" lon="-3.40652">
        <ele>154</ele>
        <time>2023-04-13T09:12:14Z</time>
      </trkpt>
      <trkpt lat="48.51583" lon="-3.40608">
        <ele>160</ele>
        <time>2023-04-13T09:13:06Z</time>
      </trkpt>
      <trkpt lat="48.51536" lon="-3.40546">
        <ele>167</ele>
        <time>2023-04-13T09:14:29Z</time>
      </trkpt>
      <trkpt lat="48.51504" lon="-3.40493">
        <ele>174</ele>
        <time>2023-04-13T09:15:32Z</time>
      </trkpt>
      <trkpt lat="48.51451" lon="-3.40385">
        <ele>181</ele>
        <time>2023-04-13T09:17:31Z</time>
      </trkpt>
      <trkpt lat="48.51431" lon="-3.4039">
        <ele>181</ele>
        <time>2023-04-13T09:17:58Z</time>
      </trkpt>
      <trkpt lat="48.5136" lon="-3.40339">
        <ele>186</ele>
        <time>2023-04-13T09:19:43Z</time>
      </trkpt>
      <trkpt lat="48.51278" lon="-3.40291">
        <ele>191</ele>
        <time>2023-04-13T09:21:40Z</time>
      </trkpt>
      <trkpt lat="48.51218" lon="-3.40219">
        <ele>197</ele>
        <time>2023-04-13T09:23:23Z</time>
      </trkpt>
      <trkpt lat="48.51168" lon="-3.40161">
        <ele>204</ele>
        <time>2023-04-13T09:24:47Z</time>
      </trkpt>
      <trkpt lat="48.51147" lon="-3.40097">
        <ele>207</ele>
        <time>2023-04-13T09:25:50Z</time>
      </trkpt>
      <trkpt lat="48.51064" lon="-3.40057">
        <ele>217</ele>
        <time>2023-04-13T09:27:46Z</time>
      </trkpt>
      <trkpt lat="48.50942" lon="-3.39822">
        <ele>233</ele>
        <time>2023-04-13T09:32:10Z</time>
      </trkpt>
      <trkpt lat="48.50846" lon="-3.39788">
        <ele>238</ele>
        <time>2023-04-13T09:34:22Z</time>
      </trkpt>
      <trkpt lat="48.5074" lon="-3.39762">
        <ele>240</ele>
        <time>2023-04-13T09:36:45Z</time>
      </trkpt>
      <trkpt lat="48.50677" lon="-3.39749">
        <ele>239</ele>
        <time>2023-04-13T09:38:10Z</time>
      </trkpt>
      <trkpt lat="48.50627" lon="-3.39731">
        <ele>237</ele>
        <time>2023-04-13T09:39:19Z</time>
      </trkpt>
      <trkpt lat="48.50609" lon="-3.39791">
        <ele>235</ele>
        <time>2023-04-13T09:40:17Z</time>
      </trkpt>
      <trkpt lat="48.50611" lon="-3.39864">
        <ele>233</ele>
        <time>2023-04-13T09:41:21Z</time>
      </trkpt>
      <trkpt lat="48.50616" lon="-3.39955">
        <ele>230</ele>
        <time>2023-04-13T09:42:42Z</time>
      </trkpt>
      <trkpt lat="48.50613" lon="-3.40039">
        <ele>226</ele>
        <time>2023-04-13T09:43:56Z</time>
      </trkpt>
      <trkpt lat="48.50593" lon="-3.4012">
        <ele>221</ele>
        <time>2023-04-13T09:45:13Z</time>
      </trkpt>
      <trkpt lat="48.50579" lon="-3.40216">
        <ele>215</ele>
        <time>2023-04-13T09:46:40Z</time>
      </trkpt>
      <trkpt lat="48.50543" lon="-3.40331">
        <ele>206</ele>
        <time>2023-04-13T09:48:32Z</time>
      </trkpt>
      <trkpt lat="48.50519" lon="-3.40415">
        <ele>199</ele>
        <time>2023-04-13T09:49:53Z</time>
      </trkpt>
      <trkpt lat="48.50489" lon="-3.40477">
        <ele>195</ele>
        <time>2023-04-13T09:51:01Z</time>
      </trkpt>
      <trkpt lat="48.50449" lon="-3.40537">
        <ele>191</ele>
        <time>2023-04-13T09:52:16Z</time>
      </trkpt>
      <trkpt lat="48.50494" lon="-3.40626">
        <ele>188</ele>
        <time>2023-04-13T09:53:55Z</time>
      </trkpt>
      <trkpt lat="48.50575" lon="-3.40621">
        <ele>188</ele>
        <time>2023-04-13T09:55:43Z</time>
      </trkpt>
      <trkpt lat="48.50616" lon="-3.4072">
        <ele>185</ele>
        <time>2023-04-13T09:57:27Z</time>
      </trkpt>
      <trkpt lat="48.50652" lon="-3.40796">
        <ele>183</ele>
        <time>2023-04-13T09:58:49Z</time>
      </trkpt>
      <trkpt lat="48.50647" lon="-3.40887">
        <ele>176</ele>
        <time>2023-04-13T10:00:10Z</time>
      </trkpt>
      <trkpt lat="48.5068" lon="-3.40986">
        <ele>169</ele>
        <time>2023-04-13T10:01:48Z</time>
      </trkpt>
      <trkpt lat="48.50777" lon="-3.41024">
        <ele>166</ele>
        <time>2023-04-13T10:04:02Z</time>
      </trkpt>
      <trkpt lat="48.50821" lon="-3.41018">
        <ele>163</ele>
        <time>2023-04-13T10:05:01Z</time>
      </trkpt>
      <trkpt lat="48.50904" lon="-3.41012">
        <ele>160</ele>
        <time>2023-04-13T10:06:52Z</time>
      </trkpt>
      <trkpt lat="48.50992" lon="-3.41036">
        <ele>158</ele>
        <time>2023-04-13T10:08:51Z</time>
      </trkpt>
      <trkpt lat="48.51076" lon="-3.41023">
        <ele>157</ele>
        <time>2023-04-13T10:10:44Z</time>
      </trkpt>
      <trkpt lat="48.51102" lon="-3.41102">
        <ele>151</ele>
        <time>2023-04-13T10:12:02Z</time>
      </trkpt>
      <trkpt lat="48.51128" lon="-3.41169">
        <ele>146</ele>
        <time>2023-04-13T10:13:10Z</time>
      </trkpt>
      <trkpt lat="48.51149" lon="-3.4123">
        <ele>140</ele>
        <time>2023-04-13T10:14:11Z</time>
      </trkpt>
      <trkpt lat="48.51165" lon="-3.41299">
        <ele>135</ele>
        <time>2023-04-13T10:15:16Z</time>
      </trkpt>
      <trkpt lat="48.51179" lon="-3.41418">
        <ele>131</ele>
        <time>2023-04-13T10:17:02Z</time>
      </trkpt>
      <trkpt lat="48.51191" lon="-3.41496">
        <ele>132</ele>
        <time>2023-04-13T10:18:13Z</time>
      </trkpt>
      <trkpt lat="48.51201" lon="-3.41536">
        <ele>131</ele>
        <time>2023-04-13T10:18:51Z</time>
      </trkpt>
      <trkpt lat="48.51254" lon="-3.41597">
        <ele>132</ele>
        <time>2023-04-13T10:20:20Z</time>
      </trkpt>
      <trkpt lat="48.51289" lon="-3.41647">
        <ele>128</ele>
        <time>2023-04-13T10:21:24Z</time>
      </trkpt>
      <trkpt lat="48.51311" lon="-3.41681">
        <ele>126</ele>
        <time>2023-04-13T10:22:06Z</time>
      </trkpt>
      <trkpt lat="48.51338" lon="-3.41724">
        <ele>122</ele>
        <time>2023-04-13T10:22:59Z</time>
      </trkpt>
      <trkpt lat="48.51389" lon="-3.4176">
        <ele>122</ele>
        <time>2023-04-13T10:24:14Z</time>
      </trkpt>
      <trkpt lat="48.51405" lon="-3.41765">
        <ele>122</ele>
        <time>2023-04-13T10:24:36Z</time>
      </trkpt>
      <trkpt lat="48.51427" lon="-3.41771">
        <ele>124</ele>
        <time>2023-04-13T10:25:05Z</time>
      </trkpt>
      <trkpt lat="48.51482" lon="-3.41762">
        <ele>131</ele>
        <time>2023-04-13T10:26:19Z</time>
      </trkpt>
      <trkpt lat="48.51487" lon="-3.41765">
        <ele>132</ele>
        <time>2023-04-13T10:26:26Z</time>
      </trkpt>
      <trkpt lat="48.51471" lon="-3.41808">
        <ele>132</ele>
        <time>2023-04-13T10:27:10Z</time>
      </trkpt>
      <trkpt lat="48.51451" lon="-3.41853">
        <ele>131</ele>
        <time>2023-04-13T10:27:58Z</time>
      </trkpt>
      <trkpt lat="48.51424" lon="-3.419">
        <ele>131</ele>
        <time>2023-04-13T10:28:53Z</time>
      </trkpt>
      <trkpt lat="48.51396" lon="-3.41913">
        <ele>131</ele>
        <time>2023-04-13T10:29:32Z</time>
      </trkpt>
      <trkpt lat="48.51338" lon="-3.41915">
        <ele>130</ele>
        <time>2023-04-13T10:30:49Z</time>
      </trkpt>
      <trkpt lat="48.51359" lon="-3.41966">
        <ele>129</ele>
        <time>2023-04-13T10:31:43Z</time>
      </trkpt>
      <trkpt lat="48.51415" lon="-3.42038">
        <ele>126</ele>
        <time>2023-04-13T10:33:21Z</time>
      </trkpt>
      <trkpt lat="48.51485" lon="-3.42108">
        <ele>118</ele>
        <time>2023-04-13T10:35:13Z</time>
      </trkpt>
      <trkpt lat="48.51527" lon="-3.42221">
        <ele>112</ele>
        <time>2023-04-13T10:37:07Z</time>
      </trkpt>
      <trkpt lat="48.5152" lon="-3.42307">
        <ele>116</ele>
        <time>2023-04-13T10:38:24Z</time>
      </trkpt>
      <trkpt lat="48.51588" lon="-3.42312">
        <ele>113</ele>
        <time>2023-04-13T10:39:55Z</time>
      </trkpt>
      <trkpt lat="48.51612" lon="-3.42431">
        <ele>121</ele>
        <time>2023-04-13T10:41:45Z</time>
      </trkpt>
      <trkpt lat="48.51631" lon="-3.4251">
        <ele>126</ele>
        <time>2023-04-13T10:42:59Z</time>
      </trkpt>
      <trkpt lat="48.51633" lon="-3.42611">
        <ele>130</ele>
        <time>2023-04-13T10:44:28Z</time>
      </trkpt>
      <trkpt lat="48.51648" lon="-3.42695">
        <ele>130</ele>
        <time>2023-04-13T10:45:45Z</time>
      </trkpt>
      <trkpt lat="48.51674" lon="-3.42779">
        <ele>127</ele>
        <time>2023-04-13T10:47:07Z</time>
      </trkpt>
      <trkpt lat="48.51694" lon="-3.42839">
        <ele>128</ele>
        <time>2023-04-13T10:48:07Z</time>
      </trkpt>
      <trkpt lat="48.51716" lon="-3.4289">
        <ele>126</ele>
        <time>2023-04-13T10:49:00Z</time>
      </trkpt>
      <trkpt lat="48.51738" lon="-3.42977">
        <ele>123</ele>
        <time>2023-04-13T10:50:23Z</time>
      </trkpt>
      <trkpt lat="48.51761" lon="-3.43034">
        <ele>121</ele>
        <time>2023-04-13T10:51:22Z</time>
      </trkpt>
      <trkpt lat="48.51749" lon="-3.43123">
        <ele>126</ele>
        <time>2023-04-13T10:52:42Z</time>
      </trkpt>
      <trkpt lat="48.51733" lon="-3.43188">
        <ele>133</ele>
        <time>2023-04-13T10:53:43Z</time>
      </trkpt>
      <trkpt lat="48.5171" lon="-3.43218">
        <ele>140</ele>
        <time>2023-04-13T10:54:24Z</time>
      </trkpt>
      <trkpt lat="48.51666" lon="-3.43273">
        <ele>154</ele>
        <time>2023-04-13T10:55:40Z</time>
      </trkpt>
      <trkpt lat="48.51629" lon="-3.43317">
        <ele>163</ele>
        <time>2023-04-13T10:56:43Z</time>
      </trkpt>
      <trkpt lat="48.51569" lon="-3.43338">
        <ele>174</ele>
        <time>2023-04-13T10:58:05Z</time>
      </trkpt>
      <trkpt lat="48.51547" lon="-3.43432">
        <ele>176</ele>
        <time>2023-04-13T10:59:33Z</time>
      </trkpt>
      <trkpt lat="48.51507" lon="-3.43455">
        <ele>178</ele>
        <time>2023-04-13T11:00:30Z</time>
      </trkpt>
      <trkpt lat="48.51477" lon="-3.4344">
        <ele>179</ele>
        <time>2023-04-13T11:01:12Z</time>
      </trkpt>
      <trkpt lat="48.51441" lon="-3.43417">
        <ele>180</ele>
        <time>2023-04-13T11:02:05Z</time>
      </trkpt>
      <trkpt lat="48.51423" lon="-3.43472">
        <ele>183</ele>
        <time>2023-04-13T11:02:59Z</time>
      </trkpt>
      <trkpt lat="48.51416" lon="-3.43648">
        <ele>183</ele>
        <time>2023-04-13T11:05:35Z</time>
      </trkpt>
      <trkpt lat="48.51427" lon="-3.43795">
        <ele>181</ele>
        <time>2023-04-13T11:07:46Z</time>
      </trkpt>
      <trkpt lat="48.51443" lon="-3.43839">
        <ele>180</ele>
        <time>2023-04-13T11:08:30Z</time>
      </trkpt>
      <trkpt lat="48.51445" lon="-3.43883">
        <ele>178</ele>
        <time>2023-04-13T11:09:09Z</time>
      </trkpt>
      <trkpt lat="48.51461" lon="-3.43936">
        <ele>176</ele>
        <time>2023-04-13T11:10:00Z</time>
      </trkpt>
      <trkpt lat="48.51477" lon="-3.4399">
        <ele>174</ele>
        <time>2023-04-13T11:10:53Z</time>
      </trkpt>
      <trkpt lat="48.51575" lon="-3.43969">
        <ele>165</ele>
        <time>2023-04-13T11:13:05Z</time>
      </trkpt>
      <trkpt lat="48.51588" lon="-3.44031">
        <ele>158</ele>
        <time>2023-04-13T11:14:02Z</time>
      </trkpt>
      <trkpt lat="48.5161" lon="-3.44084">
        <ele>150</ele>
        <time>2023-04-13T11:14:58Z</time>
      </trkpt>
      <trkpt lat="48.51662" lon="-3.44043">
        <ele>147</ele>
        <time>2023-04-13T11:16:16Z</time>
      </trkpt>
      <trkpt lat="48.51697" lon="-3.43955">
        <ele>146</ele>
        <time>2023-04-13T11:17:47Z</time>
      </trkpt>
      <trkpt lat="48.51709" lon="-3.43851">
        <ele>145</ele>
        <time>2023-04-13T11:19:20Z</time>
      </trkpt>
      <trkpt lat="48.51743" lon="-3.43789">
        <ele>134</ele>
        <time>2023-04-13T11:20:31Z</time>
      </trkpt>
      <trkpt lat="48.51797" lon="-3.43753">
        <ele>129</ele>
        <time>2023-04-13T11:21:50Z</time>
      </trkpt>
      <trkpt lat="48.51842" lon="-3.43711">
        <ele>125</ele>
        <time>2023-04-13T11:23:00Z</time>
      </trkpt>
      <trkpt lat="48.51883" lon="-3.43617">
        <ele>119</ele>
        <time>2023-04-13T11:24:40Z</time>
      </trkpt>
      <trkpt lat="48.51915" lon="-3.43562">
        <ele>117</ele>
        <time>2023-04-13T11:25:45Z</time>
      </trkpt>
      <trkpt lat="48.51962" lon="-3.43557">
        <ele>121</ele>
        <time>2023-04-13T11:26:47Z</time>
      </trkpt>
      <trkpt lat="48.51987" lon="-3.43515">
        <ele>122</ele>
        <time>2023-04-13T11:27:37Z</time>
      </trkpt>
      <trkpt lat="48.52023" lon="-3.43416">
        <ele>125</ele>
        <time>2023-04-13T11:29:17Z</time>
      </trkpt>
      <trkpt lat="48.52063" lon="-3.434">
        <ele>132</ele>
        <time>2023-04-13T11:30:12Z</time>
      </trkpt>
      <trkpt lat="48.52118" lon="-3.43307">
        <ele>140</ele>
        <time>2023-04-13T11:32:03Z</time>
      </trkpt>
      <trkpt lat="48.52203" lon="-3.43231">
        <ele>150</ele>
        <time>2023-04-13T11:34:14Z</time>
      </trkpt>
      <trkpt lat="48.52298" lon="-3.43322">
        <ele>161</ele>
        <time>2023-04-13T11:36:45Z</time>
      </trkpt>
      <trkpt lat="48.52352" lon="-3.43257">
        <ele>165</ele>
        <time>2023-04-13T11:38:17Z</time>
      </trkpt>
      <trkpt lat="48.52388" lon="-3.43124">
        <ele>159</ele>
        <time>2023-04-13T11:40:24Z</time>
      </trkpt>
      <trkpt lat="48.52458" lon="-3.43035">
        <ele>161</ele>
        <time>2023-04-13T11:42:26Z</time>
      </trkpt>
      <trkpt lat="48.52544" lon="-3.42991">
        <ele>166</ele>
        <time>2023-04-13T11:44:27Z</time>
      </trkpt>
      <trkpt lat="48.52648" lon="-3.42959">
        <ele>170</ele>
        <time>2023-04-13T11:46:49Z</time>
      </trkpt>
      <trkpt lat="48.52735" lon="-3.42912">
        <ele>171</ele>
        <time>2023-04-13T11:48:52Z</time>
      </trkpt>
      <trkpt lat="48.52749" lon="-3.42884">
        <ele>171</ele>
        <time>2023-04-13T11:49:23Z</time>
      </trkpt>
      <trkpt lat="48.52911" lon="-3.4279">
        <ele>182</ele>
        <time>2023-04-13T11:53:15Z</time>
      </trkpt>
      <trkpt lat="48.52959" lon="-3.42576">
        <ele>185</ele>
        <time>2023-04-13T11:56:34Z</time>
      </trkpt>
      <trkpt lat="48.52869" lon="-3.42443">
        <ele>181</ele>
        <time>2023-04-13T11:59:22Z</time>
      </trkpt>
      <trkpt lat="48.52837" lon="-3.42406">
        <ele>180</ele>
        <time>2023-04-13T12:00:16Z</time>
      </trkpt>
      <trkpt lat="48.52824" lon="-3.42362">
        <ele>178</ele>
        <time>2023-04-13T12:00:59Z</time>
      </trkpt>
      <trkpt lat="48.52859" lon="-3.42323">
        <ele>178</ele>
        <time>2023-04-13T12:01:57Z</time>
      </trkpt>
      <trkpt lat="48.52869" lon="-3.42283">
        <ele>177</ele>
        <time>2023-04-13T12:02:34Z</time>
      </trkpt>
      <trkpt lat="48.52903" lon="-3.42249">
        <ele>177</ele>
        <time>2023-04-13T12:03:29Z</time>
      </trkpt>
      <trkpt lat="48.52923" lon="-3.42189">
        <ele>176</ele>
        <time>2023-04-13T12:04:28Z</time>
      </trkpt>
      <trkpt lat="48.52947" lon="-3.42085">
        <ele>175</ele>
        <time>2023-04-13T12:06:06Z</time>
      </trkpt>
      <trkpt lat="48.52952" lon="-3.41983">
        <ele>174</ele>
        <time>2023-04-13T12:07:36Z</time>
      </trkpt>
      <trkpt lat="48.52952" lon="-3.41874">
        <ele>173</ele>
        <time>2023-04-13T12:09:12Z</time>
      </trkpt>
      <trkpt lat="48.52945" lon="-3.41769">
        <ele>172</ele>
        <time>2023-04-13T12:10:46Z</time>
      </trkpt>
      <trkpt lat="48.52945" lon="-3.41652">
        <ele>174</ele>
        <time>2023-04-13T12:12:29Z</time>
      </trkpt>
      <trkpt lat="48.53001" lon="-3.41652">
        <ele>173</ele>
        <time>2023-04-13T12:13:44Z</time>
      </trkpt>
      <trkpt lat="48.53006" lon="-3.41527">
        <ele>172</ele>
        <time>2023-04-13T12:15:34Z</time>
      </trkpt>
      <trkpt lat="48.53021" lon="-3.41431">
        <ele>172</ele>
        <time>2023-04-13T12:17:02Z</time>
      </trkpt>
      <trkpt lat="48.5306" lon="-3.41305">
        <ele>171</ele>
        <time>2023-04-13T12:19:04Z</time>
      </trkpt>
      <trkpt lat="48.53044" lon="-3.41217">
        <ele>170</ele>
        <time>2023-04-13T12:20:25Z</time>
      </trkpt>
      <trkpt lat="48.53076" lon="-3.41136">
        <ele>170</ele>
        <time>2023-04-13T12:21:48Z</time>
      </trkpt>
      <trkpt lat="48.53089" lon="-3.41065">
        <ele>170</ele>
        <time>2023-04-13T12:22:54Z</time>
      </trkpt>
      <trkpt lat="48.53132" lon="-3.40961">
        <ele>171</ele>
        <time>2023-04-13T12:24:42Z</time>
      </trkpt>
      <trkpt lat="48.53161" lon="-3.40867">
        <ele>171</ele>
        <time>2023-04-13T12:26:13Z</time>
      </trkpt>
      <trkpt lat="48.53193" lon="-3.40762">
        <ele>170</ele>
        <time>2023-04-13T12:27:56Z</time>
      </trkpt>
      <trkpt lat="48.53253" lon="-3.40648">
        <ele>166</ele>
        <time>2023-04-13T12:30:04Z</time>
      </trkpt>
      <trkpt lat="48.53303" lon="-3.40564">
        <ele>163</ele>
        <time>2023-04-13T12:31:44Z</time>
      </trkpt>
      <trkpt lat="48.53355" lon="-3.4046">
        <ele>159</ele>
        <time>2023-04-13T12:33:39Z</time>
      </trkpt>
      <trkpt lat="48.53403" lon="-3.40353">
        <ele>155</ele>
        <time>2023-04-13T12:35:33Z</time>
      </trkpt>
      <trkpt lat="48.53436" lon="-3.40345">
        <ele>154</ele>
        <time>2023-04-13T12:36:18Z</time>
      </trkpt>
      <trkpt lat="48.53468" lon="-3.403">
        <ele>152</ele>
        <time>2023-04-13T12:37:16Z</time>
      </trkpt>
      <trkpt lat="48.53475" lon="-3.40253">
        <ele>151</ele>
        <time>2023-04-13T12:37:59Z</time>
      </trkpt>
      <trkpt lat="48.53467" lon="-3.40226">
        <ele>150</ele>
        <time>2023-04-13T12:38:25Z</time>
      </trkpt>
      <trkpt lat="48.5353" lon="-3.40137">
        <ele>147</ele>
        <time>2023-04-13T12:40:20Z</time>
      </trkpt>
      <trkpt lat="48.53586" lon="-3.40075">
        <ele>144</ele>
        <time>2023-04-13T12:41:53Z</time>
      </trkpt>
      <trkpt lat="48.53651" lon="-3.40158">
        <ele>141</ele>
        <time>2023-04-13T12:43:47Z</time>
      </trkpt>
      <trkpt lat="48.53703" lon="-3.40096">
        <ele>136</ele>
        <time>2023-04-13T12:45:15Z</time>
      </trkpt>
      <trkpt lat="48.53724" lon="-3.40074">
        <ele>134</ele>
        <time>2023-04-13T12:45:49Z</time>
      </trkpt>
      <trkpt lat="48.53769" lon="-3.4012">
        <ele>128</ele>
        <time>2023-04-13T12:47:02Z</time>
      </trkpt>
      <trkpt lat="48.53793" lon="-3.40021">
        <ele>122</ele>
        <time>2023-04-13T12:48:35Z</time>
      </trkpt>
      <trkpt lat="48.53793" lon="-3.39973">
        <ele>122</ele>
        <time>2023-04-13T12:49:17Z</time>
      </trkpt>
      <trkpt lat="48.53843" lon="-3.39971">
        <ele>117</ele>
        <time>2023-04-13T12:50:24Z</time>
      </trkpt>
      <trkpt lat="48.53886" lon="-3.39921">
        <ele>112</ele>
        <time>2023-04-13T12:51:36Z</time>
      </trkpt>
      <trkpt lat="48.53933" lon="-3.39815">
        <ele>101</ele>
        <time>2023-04-13T12:53:29Z</time>
      </trkpt>
      <trkpt lat="48.53977" lon="-3.39783">
        <ele>102</ele>
        <time>2023-04-13T12:54:34Z</time>
      </trkpt>
      <trkpt lat="48.54041" lon="-3.39778">
        <ele>102</ele>
        <time>2023-04-13T12:56:00Z</time>
      </trkpt>
      <trkpt lat="48.541" lon="-3.39778">
        <ele>102</ele>
        <time>2023-04-13T12:57:18Z</time>
      </trkpt>
      <trkpt lat="48.54159" lon="-3.39792">
        <ele>102</ele>
        <time>2023-04-13T12:58:38Z</time>
      </trkpt>
      <trkpt lat="48.54202" lon="-3.3978">
        <ele>100</ele>
        <time>2023-04-13T12:59:36Z</time>
      </trkpt>
      <trkpt lat="48.54239" lon="-3.39777">
        <ele>99</ele>
        <time>2023-04-13T13:00:26Z</time>
      </trkpt>
      <trkpt lat="48.54263" lon="-3.39794">
        <ele>100</ele>
        <time>2023-04-13T13:01:01Z</time>
      </trkpt>
      <trkpt lat="48.54301" lon="-3.39784">
        <ele>99</ele>
        <time>2023-04-13T13:01:53Z</time>
      </trkpt>
      <trkpt lat="48.54327" lon="-3.39762">
        <ele>97</ele>
        <time>2023-04-13T13:02:33Z</time>
      </trkpt>
      <trkpt lat="48.54378" lon="-3.39782">
        <ele>98</ele>
        <time>2023-04-13T13:03:43Z</time>
      </trkpt>
      <trkpt lat="48.54445" lon="-3.39785">
        <ele>96</ele>
        <time>2023-04-13T13:05:12Z</time>
      </trkpt>
      <trkpt lat="48.54491" lon="-3.39812">
        <ele>94</ele>
        <time>2023-04-13T13:06:18Z</time>
      </trkpt>
      <trkpt lat="48.54562" lon="-3.39885">
        <ele>95</ele>
        <time>2023-04-13T13:08:13Z</time>
      </trkpt>
      <trkpt lat="48.54624" lon="-3.39921">
        <ele>95</ele>
        <time>2023-04-13T13:09:41Z</time>
      </trkpt>
      <trkpt lat="48.54702" lon="-3.39868">
        <ele>94</ele>
        <time>2023-04-13T13:11:36Z</time>
      </trkpt>
      <trkpt lat="48.54693" lon="-3.39778">
        <ele>90</ele>
        <time>2023-04-13T13:12:56Z</time>
      </trkpt>
    </trkseg>
  </trk>
</gpx>